createdAt,value
2022-09-02T00:01:29.564Z,97135.13
2022-09-02T00:03:59.539Z,97140.72
2022-09-02T00:06:28.944Z,97139.28
2022-09-02T00:08:57.168Z,97134.03
2022-09-02T00:11:29.202Z,97118.13
2022-09-02T00:13:58.205Z,97126.56
2022-09-02T00:16:27.294Z,97123.06
2022-09-02T00:18:56.502Z,97114.47
2022-09-02T00:21:25.606Z,97117.34
2022-09-02T00:23:54.382Z,97117.97
2022-09-02T00:26:23.252Z,97123.38
2022-09-02T00:28:56.090Z,97111.63
2022-09-02T00:31:25.669Z,97110.03
2022-09-02T00:33:53.819Z,97110.34
2022-09-02T00:36:22.356Z,97107.97
2022-09-02T00:38:50.500Z,97116.09
2022-09-02T00:41:21.265Z,97110.84
2022-09-02T00:43:51.054Z,97111.47
2022-09-02T00:46:22.678Z,97113.84
2022-09-02T00:48:55.614Z,97109.22
2022-09-02T00:51:24.393Z,97105.75
2022-09-02T00:53:52.512Z,97107.16
2022-09-02T00:56:23.018Z,97105.13
2022-09-02T00:58:52.141Z,97107.31
2022-09-02T01:01:22.611Z,97105.28
2022-09-02T01:03:52.088Z,97104.78
2022-09-02T01:06:22.142Z,97100.47
2022-09-02T01:08:54.604Z,97111.13
2022-09-02T01:11:23.029Z,97104.28
2022-09-02T01:13:51.287Z,97107.13
2022-09-02T01:16:25.721Z,97113.78
2022-09-02T01:18:56.692Z,97106.19
2022-09-02T01:21:24.767Z,97109.97
2022-09-02T01:23:55.321Z,97109.97
2022-09-02T01:26:24.489Z,97102.97
2022-09-02T01:28:53.596Z,97107.44
2022-09-02T01:31:21.640Z,97109.50
2022-09-02T01:33:51.380Z,97109.66
2022-09-02T01:36:21.892Z,97104.25
2022-09-02T01:38:49.982Z,97098.03
2022-09-02T01:41:19.400Z,97102.16
2022-09-02T01:43:47.550Z,97100.75
2022-09-02T01:46:15.770Z,97100.75
2022-09-02T01:48:44.306Z,97099.75
2022-09-02T01:51:17.579Z,97100.41
2022-09-02T01:53:46.843Z,97095.63
2022-09-02T01:56:15.311Z,97096.41
2022-09-02T01:58:45.830Z,97085.47
2022-09-02T02:01:13.949Z,97088.47
2022-09-02T02:03:43.136Z,97081.81
2022-09-02T02:06:12.479Z,97089.41
2022-09-02T02:08:42.126Z,97080.81
2022-09-02T02:11:11.330Z,97084.16
2022-09-02T02:13:39.490Z,97084.16
2022-09-02T02:16:09.270Z,97083.19
2022-09-02T02:18:37.695Z,97085.41
2022-09-02T02:21:05.957Z,97086.03
2022-09-02T02:23:34.279Z,97078.91
2022-09-02T02:26:02.312Z,97077.78
2022-09-02T02:28:30.408Z,97075.88
2022-09-02T02:31:00.020Z,97073.31
2022-09-02T02:33:34.999Z,97070.47
2022-09-02T02:36:05.576Z,97072.69
2022-09-02T02:38:33.768Z,97080.31
2022-09-02T02:41:02.125Z,97078.72
2022-09-02T02:43:30.578Z,97073.63
2022-09-02T02:45:58.740Z,97071.72
2022-09-02T02:48:26.770Z,97074.22
2022-09-02T02:50:56.939Z,97081.56
2022-09-02T02:53:25.020Z,97083.94
2022-09-02T02:55:53.211Z,97087.44
2022-09-02T02:58:21.248Z,97078.06
2022-09-02T03:00:50.080Z,97077.72
2022-09-02T03:03:20.304Z,97074.72
2022-09-02T03:05:52.550Z,97070.56
2022-09-02T03:08:25.769Z,97070.56
2022-09-02T03:10:55.497Z,97074.38
2022-09-02T03:13:27.353Z,97066.28
2022-09-02T03:15:58.008Z,97066.13
2022-09-02T03:18:27.112Z,97061.31
2022-09-02T03:20:55.633Z,97064.03
2022-09-02T03:23:25.930Z,97060.06
2022-09-02T03:26:20.279Z,97060.06
2022-09-02T03:28:49.638Z,97059.28
2022-09-02T03:31:20.647Z,97056.22
2022-09-02T03:33:49.555Z,97060.50
2022-09-02T03:36:22.360Z,97048.75
2022-09-02T03:38:52.827Z,97047.97
2022-09-02T03:41:21.321Z,97051.56
2022-09-02T03:43:49.660Z,97047.78
2022-09-02T03:46:18.673Z,97038.09
2022-09-02T03:48:47.350Z,97048.41
2022-09-02T03:51:15.466Z,97052.06
2022-09-02T03:53:43.653Z,97049.66
2022-09-02T03:56:15.404Z,97051.38
2022-09-02T03:58:43.759Z,97054.25
2022-09-02T04:01:15.071Z,97047.09
2022-09-02T04:03:43.560Z,97047.09
2022-09-02T04:06:37.618Z,97044.22
2022-09-02T04:09:07.086Z,97045.94
2022-09-02T04:11:37.340Z,97045.25
2022-09-02T04:14:05.713Z,97044.94
2022-09-02T04:16:34.990Z,97040.97
2022-09-02T04:19:08.635Z,97047.94
2022-09-02T04:21:39.838Z,97048.75
2022-09-02T04:24:10.327Z,97042.56
2022-09-02T04:26:45.140Z,97039.38
2022-09-02T04:29:15.702Z,97040.78
2022-09-02T04:31:45.451Z,97043.16
2022-09-02T04:34:13.783Z,97043.78
2022-09-02T04:36:43.201Z,97055.69
2022-09-02T04:39:13.682Z,97057.88
2022-09-02T04:41:43.557Z,97057.59
2022-09-02T04:44:13.777Z,97054.59
2022-09-02T04:46:45.115Z,97046.00
2022-09-02T04:49:18.066Z,97046.78
2022-09-02T04:51:47.276Z,97052.69
2022-09-02T04:54:16.015Z,97058.06
2022-09-02T04:56:49.507Z,97056.19
2022-09-02T04:59:21.238Z,97053.16
2022-09-02T05:02:01.045Z,97055.53
2022-09-02T05:04:31.930Z,97060.47
2022-09-02T05:07:01.979Z,97059.84
2022-09-02T05:09:32.842Z,97055.53
2022-09-02T05:12:05.905Z,97053.94
2022-09-02T05:14:41.473Z,97051.25
2022-09-02T05:17:10.716Z,97057.78
2022-09-02T05:19:42.003Z,97063.63
2022-09-02T05:22:10.457Z,97058.75
2022-09-02T05:24:43.339Z,97060.13
2022-09-02T05:27:16.314Z,97062.69
2022-09-02T05:29:45.989Z,97065.13
2022-09-02T05:32:16.732Z,97057.53
2022-09-02T05:34:47.975Z,97058.94
2022-09-02T05:37:16.381Z,97063.50
2022-09-02T05:39:44.455Z,97051.75
2022-09-02T05:42:12.719Z,97060.34
2022-09-02T05:44:44.724Z,97053.34
2022-09-02T05:47:15.334Z,97058.44
2022-09-02T05:49:44.293Z,97065.72
2022-09-02T05:52:15.238Z,97066.72
2022-09-02T05:54:50.341Z,97057.31
2022-09-02T05:57:21.069Z,97066.13
2022-09-02T05:59:58.451Z,97057.41
2022-09-02T06:02:52.459Z,97057.41
2022-09-02T06:05:26.962Z,97063.44
2022-09-02T06:08:05.319Z,97062.50
2022-09-02T06:10:33.931Z,97066.19
2022-09-02T06:13:02.523Z,97059.88
2022-09-02T06:15:35.251Z,97058.56
2022-09-02T06:18:03.996Z,97064.31
2022-09-02T06:20:34.407Z,97057.84
2022-09-02T06:23:04.234Z,97060.22
2022-09-02T06:25:32.826Z,97054.22
2022-09-02T06:28:06.463Z,97055.00
2022-09-02T06:30:41.397Z,97058.66
2022-09-02T06:33:11.802Z,97055.03
2022-09-02T06:35:44.463Z,97053.31
2022-09-02T06:38:15.265Z,97050.47
2022-09-02T06:40:48.883Z,97054.59
2022-09-02T06:43:18.190Z,97057.63
2022-09-02T06:46:00.196Z,97048.91
2022-09-02T06:48:28.711Z,97053.66
2022-09-02T06:50:57.841Z,97058.94
2022-09-02T06:53:25.955Z,97051.78
2022-09-02T06:55:54.771Z,97046.53
2022-09-02T06:58:23.436Z,97043.53
2022-09-02T07:00:51.588Z,97050.06
2022-09-02T07:03:38.458Z,97050.69
2022-09-02T07:06:10.165Z,97056.41
2022-09-02T07:08:44.367Z,97055.16
2022-09-02T07:11:18.841Z,97054.53
2022-09-02T07:13:48.892Z,97057.88
2022-09-02T07:16:26.709Z,97049.59
2022-09-02T07:19:01.211Z,97055.78
2022-09-02T07:21:30.319Z,97056.41
2022-09-02T07:23:59.612Z,97048.47
2022-09-02T07:26:28.803Z,97067.22
2022-09-02T07:28:58.468Z,97059.13
2022-09-02T07:31:27.496Z,97058.16
2022-09-02T07:33:59.162Z,97060.00
2022-09-02T07:36:29.519Z,97058.91
2022-09-02T07:38:58.792Z,97047.09
2022-09-02T07:41:27.291Z,97056.16
2022-09-02T07:43:59.544Z,97059.66
2022-09-02T07:46:32.844Z,97059.63
2022-09-02T07:49:05.850Z,97061.97
2022-09-02T07:51:40.718Z,97053.22
2022-09-02T07:54:10.536Z,97050.47
2022-09-02T07:56:38.823Z,97043.78
2022-09-02T07:59:08.372Z,97050.47
2022-09-02T08:01:38.135Z,97048.06
2022-09-02T08:04:08.120Z,97046.75
2022-09-02T08:06:37.714Z,97051.00
2022-09-02T08:09:11.188Z,97055.72
2022-09-02T08:11:40.324Z,97053.31
2022-09-02T08:14:09.504Z,97048.47
2022-09-02T08:16:40.104Z,97055.66
2022-09-02T08:19:09.953Z,97049.69
2022-09-02T08:21:38.051Z,97049.50
2022-09-02T08:24:06.375Z,97052.94
2022-09-02T08:26:37.121Z,97054.13
2022-09-02T08:29:05.771Z,97051.00
2022-09-02T08:31:34.327Z,97061.81
2022-09-02T08:34:29.290Z,97062.53
2022-09-02T08:36:58.061Z,97056.13
2022-09-02T08:39:26.672Z,97050.50
2022-09-02T08:44:38.188Z,97051.88
2022-09-02T08:47:07.879Z,97049.16
2022-09-02T08:49:40.338Z,97042.41
2022-09-02T08:52:08.546Z,97040.84
2022-09-02T08:54:41.215Z,97029.56
2022-09-02T08:57:10.065Z,97030.13
2022-09-02T09:02:17.630Z,97029.84
2022-09-02T09:05:02.666Z,97020.09
2022-09-02T09:10:15.358Z,97017.41
2022-09-02T09:12:57.254Z,97011.31
2022-09-02T09:15:34.086Z,97018.53
2022-09-02T09:18:04.037Z,97024.47
2022-09-02T09:20:35.085Z,97018.34
2022-09-02T09:23:10.106Z,97016.19
2022-09-02T09:25:38.150Z,97019.13
2022-09-02T09:28:06.230Z,97010.63
2022-09-02T09:30:34.299Z,97007.44
2022-09-02T09:33:04.399Z,97009.25
2022-09-02T09:35:49.727Z,97006.53
2022-09-02T09:38:17.881Z,96998.38
2022-09-02T09:40:46.080Z,97002.44
2022-09-02T09:43:16.480Z,97002.19
2022-09-02T09:45:45.746Z,97000.38
2022-09-02T09:48:22.987Z,97002.63
2022-09-02T09:51:12.916Z,96995.44
2022-09-02T09:53:41.429Z,96995.09
2022-09-02T09:56:27.833Z,96989.16
2022-09-02T09:58:55.986Z,96987.78
2022-09-02T10:01:26.153Z,96983.94
2022-09-02T10:03:57.312Z,96998.00
2022-09-02T10:06:38.720Z,96994.94
2022-09-02T10:09:08.619Z,96991.66
2022-09-02T10:11:38.589Z,96983.84
2022-09-02T10:14:08.017Z,96991.09
2022-09-02T10:16:46.151Z,96980.09
2022-09-02T10:19:20.681Z,96980.19
2022-09-02T10:22:05.228Z,96979.69
2022-09-02T10:24:45.781Z,96988.72
2022-09-02T10:27:17.404Z,96986.91
2022-09-02T10:29:54.327Z,96974.50
2022-09-02T10:32:40.317Z,96978.47
2022-09-02T10:35:12.587Z,96973.03
2022-09-02T10:37:50.721Z,96977.00
2022-09-02T10:40:21.410Z,96974.06
2022-09-02T10:43:02.097Z,96973.38
2022-09-02T10:45:35.138Z,96970.28
2022-09-02T10:48:15.232Z,96975.22
2022-09-02T10:50:49.969Z,96974.44
2022-09-02T10:53:34.612Z,96971.63
2022-09-02T10:56:05.157Z,96960.72
2022-09-02T10:58:41.988Z,96952.72
2022-09-02T11:01:12.249Z,96955.53
2022-09-02T11:03:43.655Z,96958.88
2022-09-02T11:06:16.988Z,96954.03
2022-09-02T11:08:48.916Z,96945.69
2022-09-02T11:11:21.515Z,96946.47
2022-09-02T11:13:58.785Z,96954.28
2022-09-02T11:16:30.941Z,96943.47
2022-09-02T11:19:03.977Z,96940.44
2022-09-02T11:21:40.252Z,96940.09
2022-09-02T11:24:11.538Z,96942.56
2022-09-02T11:26:42.734Z,96935.66
2022-09-02T11:29:14.057Z,96936.63
2022-09-02T11:31:44.956Z,96933.16
2022-09-02T11:34:23.993Z,96932.19
2022-09-02T11:36:53.022Z,96933.31
2022-09-02T11:39:42.844Z,96930.09
2022-09-02T11:42:30.924Z,96922.41
2022-09-02T11:45:29.758Z,96915.22
2022-09-02T11:48:24.964Z,96917.41
2022-09-02T11:51:05.156Z,96926.88
2022-09-02T11:53:37.419Z,96918.97
2022-09-02T11:56:12.089Z,96926.00
2022-09-02T11:58:45.806Z,96917.09
2022-09-02T12:01:35.205Z,96912.09
2022-09-02T12:04:55.905Z,96915.31
2022-09-02T12:07:26.855Z,96916.25
2022-09-02T12:09:59.915Z,96918.69
2022-09-02T12:13:08.462Z,96915.53
2022-09-02T12:15:38.506Z,96908.63
2022-09-02T12:18:31.082Z,96913.34
2022-09-02T12:21:18.261Z,96912.91
2022-09-02T12:24:22.133Z,96903.28
2022-09-02T12:27:10.027Z,96909.19
2022-09-02T12:29:39.926Z,96911.91
2022-09-02T12:32:09.928Z,96906.53
2022-09-02T12:34:54.271Z,96911.03
2022-09-02T12:37:54.886Z,96905.97
2022-09-02T12:40:35.522Z,96902.66
2022-09-02T12:43:08.045Z,96895.31
2022-09-02T12:45:43.871Z,96890.69
2022-09-02T12:48:14.720Z,96891.50
2022-09-02T12:50:55.485Z,96880.59
2022-09-02T12:53:31.403Z,96882.28
2022-09-02T12:56:04.411Z,96885.13
2022-09-02T12:58:35.749Z,96877.63
2022-09-02T13:01:14.305Z,96878.06
2022-09-02T13:04:12.102Z,96876.03
2022-09-02T13:06:52.289Z,96883.09
2022-09-02T13:09:42.636Z,96875.38
2022-09-02T13:12:43.933Z,96874.25
2022-09-02T13:15:23.782Z,96881.69
2022-09-02T13:18:30.264Z,96881.69
2022-09-02T13:21:08.070Z,96875.94
2022-09-02T13:24:20.642Z,96879.63
2022-09-02T13:27:23.174Z,96857.31
2022-09-02T13:30:07.090Z,96861.31
2022-09-02T13:32:35.783Z,96856.66
2022-09-02T13:35:06.736Z,96864.19
2022-09-02T13:37:37.959Z,96863.88
2022-09-02T13:40:18.439Z,96865.81
2022-09-02T13:42:50.846Z,96858.81
2022-09-02T13:45:20.287Z,96858.84
2022-09-02T13:47:50.142Z,96860.22
2022-09-02T13:50:21.680Z,96854.50
2022-09-02T13:55:49.108Z,96847.28
2022-09-02T13:58:24.504Z,96845.47
2022-09-02T14:01:01.129Z,96846.84
2022-09-02T14:03:32.969Z,96841.53
2022-09-02T14:06:02.159Z,96843.22
2022-09-02T14:08:32.782Z,96847.84
2022-09-02T14:11:07.419Z,96840.91
2022-09-02T14:13:36.870Z,96836.28
2022-09-02T14:16:33.340Z,96841.94
2022-09-02T14:19:09.177Z,96833.06
2022-09-02T14:21:38.431Z,96828.13
2022-09-02T14:24:13.474Z,96828.97
2022-09-02T14:26:43.811Z,96827.09
2022-09-02T14:29:15.203Z,96824.84
2022-09-02T14:31:43.379Z,96819.78
2022-09-02T14:34:34.215Z,96811.13
2022-09-02T14:37:02.531Z,96814.78
2022-09-02T14:39:32.081Z,96813.28
2022-09-02T14:42:00.301Z,96813.59
2022-09-02T14:44:33.992Z,96812.09
2022-09-02T14:47:04.698Z,96804.41
2022-09-02T14:49:34.970Z,96803.66
2022-09-02T14:52:06.082Z,96801.78
2022-09-02T14:54:37.540Z,96795.22
2022-09-02T14:57:06.539Z,96799.91
2022-09-02T14:59:34.579Z,96801.94
2022-09-02T15:02:02.839Z,96792.53
2022-09-02T15:04:32.964Z,96799.06
2022-09-02T15:07:01.684Z,96792.06
2022-09-02T15:09:32.085Z,96790.50
2022-09-02T15:12:02.910Z,96790.16
2022-09-02T15:14:31.150Z,96787.84
2022-09-02T15:16:59.359Z,96782.75
2022-09-02T15:19:27.431Z,96792.16
2022-09-02T15:21:55.500Z,96792.97
2022-09-02T15:24:24.467Z,96789.44
2022-09-02T15:26:52.720Z,96780.81
2022-09-02T15:29:26.920Z,96778.06
2022-09-02T15:31:58.646Z,96777.28
2022-09-02T15:34:28.164Z,96778.84
2022-09-02T15:36:57.333Z,96770.19
2022-09-02T15:39:27.212Z,96771.00
2022-09-02T15:41:56.416Z,96779.63
2022-09-02T15:44:26.918Z,96784.75
2022-09-02T15:46:58.247Z,96783.19
2022-09-02T15:49:26.519Z,96786.69
2022-09-02T15:51:55.181Z,96785.13
2022-09-02T15:54:24.932Z,96780.41
2022-09-02T15:56:56.615Z,96777.25
2022-09-02T15:59:28.160Z,96777.25
2022-09-02T16:01:58.702Z,96775.66
2022-09-02T16:04:29.362Z,96764.63
2022-09-02T16:06:58.203Z,96772.47
2022-09-02T16:09:26.424Z,96768.47
2022-09-02T16:11:56.194Z,96764.81
2022-09-02T16:14:26.628Z,96755.78
2022-09-02T16:16:55.830Z,96758.47
2022-09-02T16:19:27.632Z,96751.41
2022-09-02T16:21:57.882Z,96756.56
2022-09-02T16:24:26.031Z,96758.00
2022-09-02T16:26:54.355Z,96759.47
2022-09-02T16:29:27.113Z,96754.78
2022-09-02T16:34:46.856Z,96754.78
2022-09-02T16:37:15.496Z,96749.97
2022-09-02T16:39:43.990Z,96749.06
2022-09-02T16:42:12.055Z,96748.13
2022-09-02T16:44:41.557Z,96749.56
2022-09-02T16:47:12.889Z,96742.44
2022-09-02T16:49:42.145Z,96739.25
2022-09-02T16:52:10.195Z,96738.47
2022-09-02T16:54:40.848Z,96740.69
2022-09-02T16:57:09.542Z,96737.44
2022-09-02T16:59:37.617Z,96731.97
2022-09-02T17:02:05.979Z,96736.06
2022-09-02T17:04:35.505Z,96735.56
2022-09-02T17:07:04.167Z,96733.31
2022-09-02T17:09:32.469Z,96740.72
2022-09-02T17:12:00.544Z,96740.41
2022-09-02T17:14:28.649Z,96736.97
2022-09-02T17:16:56.866Z,96745.75
2022-09-02T17:19:29.856Z,96750.16
2022-09-02T17:22:01.470Z,96747.88
2022-09-02T17:24:30.764Z,96744.53
2022-09-02T17:27:00.517Z,96746.06
2022-09-02T17:29:48.885Z,96747.28
2022-09-02T17:32:17.770Z,96736.00
2022-09-02T17:34:45.924Z,96743.72
2022-09-02T17:37:15.361Z,96738.91
2022-09-02T17:39:43.502Z,96743.06
2022-09-02T17:42:10.725Z,96742.22
2022-09-02T17:44:40.210Z,96742.44
2022-09-02T17:47:11.120Z,96741.00
2022-09-02T17:49:42.289Z,96747.59
2022-09-02T17:52:11.407Z,96748.31
2022-09-02T17:54:41.780Z,96746.72
2022-09-02T17:57:17.009Z,96751.31
2022-09-02T17:59:53.362Z,96757.91
2022-09-02T18:02:56.553Z,96765.19
2022-09-02T18:05:29.398Z,96774.38
2022-09-02T18:08:01.701Z,96760.66
2022-09-02T18:10:35.992Z,96766.38
2022-09-02T18:13:06.044Z,96764.38
2022-09-02T18:15:38.704Z,96752.56
2022-09-02T18:18:07.349Z,96763.41
2022-09-02T18:20:41.688Z,96761.72
2022-09-02T18:23:22.490Z,96772.06
2022-09-02T18:26:00.280Z,96768.88
2022-09-02T18:28:38.637Z,96769.13
2022-09-02T18:31:16.676Z,96764.34
2022-09-02T18:33:57.544Z,96768.97
2022-09-02T18:36:35.381Z,96755.59
2022-09-02T18:39:14.175Z,96764.88
2022-09-02T18:41:54.948Z,96766.69
2022-09-02T18:44:31.120Z,96766.16
2022-09-02T18:47:03.494Z,96768.13
2022-09-02T18:49:34.782Z,96777.03
2022-09-02T18:52:05.421Z,96773.00
2022-09-02T18:54:40.597Z,96780.63
2022-09-02T18:57:10.271Z,96771.06
2022-09-02T18:59:43.380Z,96772.44
2022-09-02T19:02:20.818Z,96772.31
2022-09-02T19:04:48.947Z,96788.59
2022-09-02T19:07:37.638Z,96794.06
2022-09-02T19:10:09.044Z,96800.22
2022-09-02T19:12:40.347Z,96802.53
2022-09-02T19:15:10.359Z,96806.31
2022-09-02T19:17:41.695Z,96800.78
2022-09-02T19:20:10.179Z,96804.50
2022-09-02T19:22:40.787Z,96800.72
2022-09-02T19:25:11.923Z,96805.31
2022-09-02T19:27:43.197Z,96813.31
2022-09-02T19:30:15.029Z,96817.81
2022-09-02T19:32:45.019Z,96811.59
2022-09-02T19:35:16.694Z,96815.34
2022-09-02T19:37:47.057Z,96807.38
2022-09-02T19:40:20.303Z,96813.44
2022-09-02T19:42:51.976Z,96811.00
2022-09-02T19:45:21.700Z,96804.56
2022-09-02T19:50:40.889Z,96804.97
2022-09-02T19:53:10.684Z,96797.06
2022-09-02T19:55:39.015Z,96805.50
2022-09-02T19:58:08.794Z,96797.53
2022-09-02T20:00:36.946Z,96807.50
2022-09-02T20:03:05.165Z,96801.88
2022-09-02T20:05:33.579Z,96804.16
2022-09-02T20:08:01.650Z,96807.56
2022-09-02T20:10:30.245Z,96811.66
2022-09-02T20:12:59.327Z,96808.34
2022-09-02T20:15:28.870Z,96805.06
2022-09-02T20:18:00.847Z,96801.03
2022-09-02T20:20:29.055Z,96804.41
2022-09-02T20:22:57.512Z,96798.44
2022-09-02T20:25:30.998Z,96798.69
2022-09-02T20:28:07.723Z,96794.94
2022-09-02T20:30:39.417Z,96800.97
2022-09-02T20:33:14.801Z,96807.09
2022-09-02T20:35:58.052Z,96806.31
2022-09-02T20:38:50.674Z,96802.16
2022-09-02T20:41:28.922Z,96785.19
2022-09-02T20:44:09.094Z,96787.03
2022-09-02T20:46:48.068Z,96787.16
2022-09-02T20:49:27.823Z,96781.84
2022-09-02T20:52:01.843Z,96778.69
2022-09-02T20:54:39.253Z,96791.81
2022-09-02T20:57:18.124Z,96793.16
2022-09-02T20:59:54.743Z,96799.75
2022-09-02T21:02:29.539Z,96797.03
2022-09-02T21:05:01.799Z,96809.69
2022-09-02T21:07:34.345Z,96800.66
2022-09-02T21:10:07.521Z,96803.81
2022-09-02T21:12:41.269Z,96799.06
2022-09-02T21:15:14.943Z,96802.47
2022-09-02T21:17:48.878Z,96799.53
2022-09-02T21:20:21.199Z,96783.25
2022-09-02T21:22:52.612Z,96784.94
2022-09-02T21:25:25.329Z,96786.88
2022-09-02T21:27:58.221Z,96789.16
2022-09-02T21:30:28.517Z,96789.00
2022-09-02T21:33:00.125Z,96792.84
2022-09-02T21:35:30.989Z,96788.22
2022-09-02T21:38:02.347Z,96791.13
2022-09-02T21:40:43.759Z,96791.69
2022-09-02T21:43:22.378Z,96793.03
2022-09-02T21:45:57.848Z,96796.09
2022-09-02T21:48:35.037Z,96802.19
2022-09-02T21:51:05.903Z,96802.09
2022-09-02T21:53:44.917Z,96808.28
2022-09-02T21:56:21.375Z,96796.53
2022-09-02T21:59:07.882Z,96795.63
2022-09-02T22:02:01.666Z,96789.41
2022-09-02T22:04:41.126Z,96793.16
2022-09-02T22:07:16.922Z,96793.22
2022-09-02T22:09:45.038Z,96792.00
2022-09-02T22:12:14.666Z,96791.88
2022-09-02T22:14:46.669Z,96779.44
2022-09-02T22:17:20.393Z,96787.91
2022-09-02T22:19:57.818Z,96781.56
2022-09-02T22:22:29.504Z,96783.16
2022-09-02T22:24:58.052Z,96783.16
2022-09-02T22:27:32.885Z,96786.19
2022-09-02T22:30:04.944Z,96787.66
2022-09-02T22:32:37.454Z,96791.41
2022-09-02T22:35:11.093Z,96786.97
2022-09-02T22:37:45.312Z,96783.00
2022-09-02T22:40:15.737Z,96786.50
2022-09-02T22:42:46.889Z,96782.44
2022-09-02T22:45:35.397Z,96790.09
2022-09-02T22:48:21.894Z,96788.50
2022-09-02T22:51:18.477Z,96782.28
2022-09-02T22:53:48.068Z,96782.84
2022-09-02T22:56:18.319Z,96774.28
2022-09-02T22:59:10.355Z,96775.84
2022-09-02T23:01:51.739Z,96783.03
2022-09-02T23:04:30.651Z,96782.25
2022-09-02T23:07:05.054Z,96778.75
2022-09-02T23:09:33.798Z,96789.59
2022-09-02T23:12:07.590Z,96790.91
2022-09-02T23:14:41.888Z,96783.94
2022-09-02T23:17:20.340Z,96789.53
2022-09-02T23:20:08.101Z,96777.28
2022-09-02T23:22:49.215Z,96772.34
2022-09-02T23:25:34.414Z,96767.94
2022-09-02T23:28:11.797Z,96764.63
2022-09-02T23:30:49.301Z,96753.81
2022-09-02T23:33:25.778Z,96756.84
2022-09-02T23:35:59.921Z,96750.38
2022-09-02T23:38:54.274Z,96753.16
2022-09-02T23:41:22.841Z,96752.22
2022-09-02T23:43:50.999Z,96757.13
2022-09-02T23:46:28.648Z,96748.69
2022-09-02T23:49:05.455Z,96755.66
2022-09-02T23:51:40.596Z,96759.50
2022-09-02T23:54:22.392Z,96770.97
2022-09-02T23:57:01.952Z,96775.47
2022-09-02T23:59:42.682Z,96778.16
